sensor_id;sensor_type;location;lat;lon;timestamp;P1;durP1;ratioP1;P2;durP2;ratioP2
30080;SDS011;16902;50.816;12.828;2023-05-10T00:04:10;14.00;;;13.45;;
30080;SDS011;16902;50.816;12.828;2023-05-10T00:09:13;13.90;;;13.40;;
30080;SDS011;16902;50.816;12.828;2023-05-10T00:14:15;13.27;;;12.77;;
30080;SDS011;16902;50.816;12.828;2023-05-10T00:19:17;13.43;;;12.73;;
30080;SDS011;16902;50.816;12.828;2023-05-10T00:24:19;12.70;;;12.20;;
30080;SDS011;16902;50.816;12.828;2023-05-10T00:29:21;12.52;;;12.13;;
30080;SDS011;16902;50.816;12.828;2023-05-10T00:34:22;13.02;;;12.52;;
30080;SDS011;16902;50.816;12.828;2023-05-10T00:39:24;12.73;;;12.30;;
30080;SDS011;16902;50.816;12.828;2023-05-10T00:44:28;12.02;;;11.63;;
30080;SDS011;16902;50.816;12.828;2023-05-10T00:49:30;12.88;;;12.38;;
30080;SDS011;16902;50.816;12.828;2023-05-10T00:54:32;12.85;;;12.35;;
30080;SDS011;16902;50.816;12.828;2023-05-10T00:59:34;12.55;;;12.15;;
30080;SDS011;16902;50.816;12.828;2023-05-10T01:04:36;12.95;;;12.45;;
30080;SDS011;16902;50.816;12.828;2023-05-10T01:09:39;11.70;;;11.30;;
30080;SDS011;16902;50.816;12.828;2023-05-10T01:14:41;12.85;;;12.35;;
30080;SDS011;16902;50.816;12.828;2023-05-10T01:19:43;12.70;;;12.27;;
30080;SDS011;16902;50.816;12.828;2023-05-10T01:25:06;12.40;;;11.90;;
30080;SDS011;16902;50.816;12.828;2023-05-10T01:35:42;11.80;;;11.38;;
30080;SDS011;16902;50.816;12.828;2023-05-10T01:46:36;11.45;;;11.05;;
30080;SDS011;16902;50.816;12.828;2023-05-10T01:51:44;11.73;;;11.32;;
30080;SDS011;16902;50.816;12.828;2023-05-10T01:56:55;11.57;;;11.18;;
30080;SDS011;16902;50.816;12.828;2023-05-10T02:02:04;12.27;;;11.70;;
30080;SDS011;16902;50.816;12.828;2023-05-10T02:07:07;11.20;;;10.70;;
30080;SDS011;16902;50.816;12.828;2023-05-10T02:12:11;11.50;;;11.10;;
30080;SDS011;16902;50.816;12.828;2023-05-10T02:17:15;10.60;;;10.20;;
30080;SDS011;16902;50.816;12.828;2023-05-10T02:22:18;10.73;;;10.32;;
30080;SDS011;16902;50.816;12.828;2023-05-10T02:27:21;10.25;;;9.85;;
30080;SDS011;16902;50.816;12.828;2023-05-10T02:32:26;10.13;;;9.73;;
30080;SDS011;16902;50.816;12.828;2023-05-10T02:37:30;10.18;;;9.75;;
30080;SDS011;16902;50.816;12.828;2023-05-10T02:42:35;9.80;;;9.13;;
30080;SDS011;16902;50.816;12.828;2023-05-10T02:47:38;9.23;;;8.93;;
30080;SDS011;16902;50.816;12.828;2023-05-10T02:52:50;8.82;;;8.52;;
30080;SDS011;16902;50.816;12.828;2023-05-10T02:57:57;8.50;;;8.20;;
30080;SDS011;16902;50.816;12.828;2023-05-10T03:03:01;8.68;;;8.38;;
30080;SDS011;16902;50.816;12.828;2023-05-10T03:08:03;8.98;;;8.57;;
30080;SDS011;16902;50.816;12.828;2023-05-10T03:18:44;7.43;;;7.13;;
30080;SDS011;16902;50.816;12.828;2023-05-10T03:23:57;7.82;;;7.53;;
30080;SDS011;16902;50.816;12.828;2023-05-10T03:29:04;9.25;;;8.95;;
30080;SDS011;16902;50.816;12.828;2023-05-10T03:34:07;8.57;;;8.27;;
30080;SDS011;16902;50.816;12.828;2023-05-10T03:39:09;10.27;;;9.85;;
30080;SDS011;16902;50.816;12.828;2023-05-10T03:44:12;9.50;;;9.15;;
30080;SDS011;16902;50.816;12.828;2023-05-10T03:49:14;10.18;;;9.77;;
30080;SDS011;16902;50.816;12.828;2023-05-10T03:54:16;10.38;;;9.98;;
30080;SDS011;16902;50.816;12.828;2023-05-10T03:59:18;11.02;;;10.57;;
30080;SDS011;16902;50.816;12.828;2023-05-10T04:04:22;10.63;;;10.23;;
30080;SDS011;16902;50.816;12.828;2023-05-10T04:09:24;11.10;;;10.70;;
30080;SDS011;16902;50.816;12.828;2023-05-10T04:14:27;11.27;;;10.88;;
30080;SDS011;16902;50.816;12.828;2023-05-10T04:19:29;11.73;;;11.23;;
30080;SDS011;16902;50.816;12.828;2023-05-10T04:24:32;11.23;;;10.80;;
30080;SDS011;16902;50.816;12.828;2023-05-10T04:29:33;12.20;;;11.70;;
30080;SDS011;16902;50.816;12.828;2023-05-10T04:34:36;11.68;;;11.23;;
30080;SDS011;16902;50.816;12.828;2023-05-10T04:39:38;11.48;;;11.07;;
30080;SDS011;16902;50.816;12.828;2023-05-10T04:44:42;11.95;;;11.55;;
30080;SDS011;16902;50.816;12.828;2023-05-10T04:49:45;11.65;;;11.18;;
30080;SDS011;16902;50.816;12.828;2023-05-10T04:54:47;12.20;;;11.70;;
30080;SDS011;16902;50.816;12.828;2023-05-10T04:59:49;12.20;;;11.75;;
30080;SDS011;16902;50.816;12.828;2023-05-10T05:04:51;12.93;;;12.43;;
30080;SDS011;16902;50.816;12.828;2023-05-10T05:09:52;11.82;;;11.43;;
30080;SDS011;16902;50.816;12.828;2023-05-10T05:14:54;11.70;;;11.30;;
30080;SDS011;16902;50.816;12.828;2023-05-10T05:19:56;12.27;;;11.77;;
30080;SDS011;16902;50.816;12.828;2023-05-10T05:24:58;12.63;;;12.13;;
30080;SDS011;16902;50.816;12.828;2023-05-10T05:30:00;11.77;;;11.38;;
30080;SDS011;16902;50.816;12.828;2023-05-10T05:35:02;12.98;;;12.45;;
30080;SDS011;16902;50.816;12.828;2023-05-10T05:40:04;12.65;;;12.13;;
30080;SDS011;16902;50.816;12.828;2023-05-10T05:45:08;12.18;;;11.70;;
30080;SDS011;16902;50.816;12.828;2023-05-10T05:50:14;12.23;;;11.82;;
30080;SDS011;16902;50.816;12.828;2023-05-10T05:55:16;12.60;;;12.10;;
30080;SDS011;16902;50.816;12.828;2023-05-10T06:00:19;12.93;;;12.43;;
30080;SDS011;16902;50.816;12.828;2023-05-10T06:05:21;12.98;;;12.48;;
30080;SDS011;16902;50.816;12.828;2023-05-10T06:10:23;13.00;;;12.50;;
30080;SDS011;16902;50.816;12.828;2023-05-10T06:15:26;12.82;;;12.32;;
30080;SDS011;16902;50.816;12.828;2023-05-10T06:20:28;12.80;;;12.30;;
30080;SDS011;16902;50.816;12.828;2023-05-10T06:25:32;12.98;;;12.38;;
30080;SDS011;16902;50.816;12.828;2023-05-10T06:30:35;12.52;;;12.02;;
30080;SDS011;16902;50.816;12.828;2023-05-10T06:35:38;12.57;;;12.10;;
30080;SDS011;16902;50.816;12.828;2023-05-10T06:40:43;13.27;;;12.70;;
30080;SDS011;16902;50.816;12.828;2023-05-10T06:45:45;13.10;;;12.60;;
30080;SDS011;16902;50.816;12.828;2023-05-10T06:50:47;13.13;;;12.63;;
30080;SDS011;16902;50.816;12.828;2023-05-10T06:55:49;12.93;;;12.40;;
30080;SDS011;16902;50.816;12.828;2023-05-10T07:00:51;13.32;;;12.82;;
30080;SDS011;16902;50.816;12.828;2023-05-10T07:05:53;12.90;;;12.30;;
30080;SDS011;16902;50.816;12.828;2023-05-10T07:11:03;13.63;;;13.10;;
30080;SDS011;16902;50.816;12.828;2023-05-10T07:16:06;13.23;;;12.73;;
30080;SDS011;16902;50.816;12.828;2023-05-10T07:21:09;13.40;;;12.90;;
30080;SDS011;16902;50.816;12.828;2023-05-10T07:26:11;12.90;;;12.40;;
30080;SDS011;16902;50.816;12.828;2023-05-10T07:31:13;13.52;;;12.93;;
30080;SDS011;16902;50.816;12.828;2023-05-10T07:36:15;14.18;;;13.48;;
30080;SDS011;16902;50.816;12.828;2023-05-10T07:41:17;13.02;;;12.52;;
30080;SDS011;16902;50.816;12.828;2023-05-10T07:46:18;13.18;;;12.57;;
30080;SDS011;16902;50.816;12.828;2023-05-10T07:51:21;13.40;;;12.80;;
30080;SDS011;16902;50.816;12.828;2023-05-10T08:01:31;13.73;;;13.13;;
30080;SDS011;16902;50.816;12.828;2023-05-10T08:06:34;13.77;;;13.18;;
30080;SDS011;16902;50.816;12.828;2023-05-10T08:11:36;13.40;;;12.90;;
30080;SDS011;16902;50.816;12.828;2023-05-10T08:16:38;13.65;;;13.05;;
30080;SDS011;16902;50.816;12.828;2023-05-10T08:21:40;13.68;;;13.07;;
30080;SDS011;16902;50.816;12.828;2023-05-10T08:26:43;12.80;;;12.30;;
30080;SDS011;16902;50.816;12.828;2023-05-10T08:31:45;13.23;;;12.73;;
30080;SDS011;16902;50.816;12.828;2023-05-10T08:36:47;13.45;;;12.95;;
30080;SDS011;16902;50.816;12.828;2023-05-10T08:41:49;13.80;;;13.23;;
30080;SDS011;16902;50.816;12.828;2023-05-10T08:46:53;12.95;;;12.45;;
30080;SDS011;16902;50.816;12.828;2023-05-10T08:51:56;12.90;;;12.40;;
30080;SDS011;16902;50.816;12.828;2023-05-10T08:57:01;13.00;;;12.50;;
30080;SDS011;16902;50.816;12.828;2023-05-10T09:02:03;13.15;;;12.65;;
30080;SDS011;16902;50.816;12.828;2023-05-10T09:07:06;13.15;;;12.65;;
30080;SDS011;16902;50.816;12.828;2023-05-10T09:12:09;12.88;;;12.25;;
30080;SDS011;16902;50.816;12.828;2023-05-10T09:17:12;12.57;;;12.07;;
30080;SDS011;16902;50.816;12.828;2023-05-10T09:22:15;12.45;;;11.95;;
30080;SDS011;16902;50.816;12.828;2023-05-10T09:27:20;12.18;;;11.73;;
30080;SDS011;16902;50.816;12.828;2023-05-10T09:37:44;11.13;;;10.43;;
30080;SDS011;16902;50.816;12.828;2023-05-10T09:42:54;9.85;;;9.45;;
30080;SDS011;16902;50.816;12.828;2023-05-10T09:47:56;8.98;;;8.68;;
30080;SDS011;16902;50.816;12.828;2023-05-10T09:53:00;8.20;;;7.90;;
30080;SDS011;16902;50.816;12.828;2023-05-10T09:58:04;7.10;;;6.80;;
30080;SDS011;16902;50.816;12.828;2023-05-10T10:03:14;7.78;;;7.47;;
30080;SDS011;16902;50.816;12.828;2023-05-10T10:08:17;7.72;;;7.28;;
30080;SDS011;16902;50.816;12.828;2023-05-10T10:13:19;7.80;;;7.50;;
30080;SDS011;16902;50.816;12.828;2023-05-10T10:18:22;7.22;;;6.93;;
30080;SDS011;16902;50.816;12.828;2023-05-10T10:23:28;8.13;;;7.82;;
30080;SDS011;16902;50.816;12.828;2023-05-10T10:34:06;8.65;;;8.35;;
30080;SDS011;16902;50.816;12.828;2023-05-10T10:39:11;9.07;;;8.75;;
30080;SDS011;16902;50.816;12.828;2023-05-10T10:49:29;9.88;;;9.48;;
30080;SDS011;16902;50.816;12.828;2023-05-10T10:54:34;9.23;;;8.93;;
30080;SDS011;16902;50.816;12.828;2023-05-10T10:59:40;10.90;;;10.48;;
30080;SDS011;16902;50.816;12.828;2023-05-10T11:04:44;11.18;;;10.68;;
30080;SDS011;16902;50.816;12.828;2023-05-10T11:09:48;11.18;;;10.77;;
30080;SDS011;16902;50.816;12.828;2023-05-10T11:14:50;9.70;;;9.20;;
30080;SDS011;16902;50.816;12.828;2023-05-10T11:20:03;8.32;;;8.02;;
30080;SDS011;16902;50.816;12.828;2023-05-10T11:25:09;7.50;;;7.10;;
30080;SDS011;16902;50.816;12.828;2023-05-10T11:30:11;7.05;;;6.75;;
30080;SDS011;16902;50.816;12.828;2023-05-10T11:35:13;6.32;;;6.03;;
30080;SDS011;16902;50.816;12.828;2023-05-10T11:40:16;5.97;;;5.68;;
30080;SDS011;16902;50.816;12.828;2023-05-10T11:45:18;5.38;;;5.18;;
30080;SDS011;16902;50.816;12.828;2023-05-10T11:50:20;4.95;;;4.75;;
30080;SDS011;16902;50.816;12.828;2023-05-10T11:55:22;4.80;;;4.70;;
30080;SDS011;16902;50.816;12.828;2023-05-10T12:00:25;4.38;;;4.28;;
30080;SDS011;16902;50.816;12.828;2023-05-10T12:05:27;5.00;;;4.70;;
30080;SDS011;16902;50.816;12.828;2023-05-10T12:10:34;4.65;;;4.55;;
30080;SDS011;16902;50.816;12.828;2023-05-10T12:15:36;5.20;;;5.00;;
30080;SDS011;16902;50.816;12.828;2023-05-10T12:20:38;6.13;;;5.93;;
30080;SDS011;16902;50.816;12.828;2023-05-10T12:25:40;6.65;;;6.35;;
30080;SDS011;16902;50.816;12.828;2023-05-10T12:30:42;6.45;;;6.15;;
30080;SDS011;16902;50.816;12.828;2023-05-10T12:35:52;7.55;;;7.25;;
30080;SDS011;16902;50.816;12.828;2023-05-10T12:41:17;8.02;;;7.72;;
30080;SDS011;16902;50.816;12.828;2023-05-10T12:46:19;6.20;;;6.00;;
30080;SDS011;16902;50.816;12.828;2023-05-10T12:51:21;6.95;;;6.47;;
30080;SDS011;16902;50.816;12.828;2023-05-10T12:56:24;6.85;;;6.55;;
30080;SDS011;16902;50.816;12.828;2023-05-10T13:01:25;6.00;;;5.70;;
30080;SDS011;16902;50.816;12.828;2023-05-10T13:06:27;5.82;;;5.63;;
30080;SDS011;16902;50.816;12.828;2023-05-10T13:11:29;7.97;;;7.68;;
30080;SDS011;16902;50.816;12.828;2023-05-10T13:16:32;6.95;;;6.65;;
30080;SDS011;16902;50.816;12.828;2023-05-10T13:21:34;6.95;;;6.65;;
30080;SDS011;16902;50.816;12.828;2023-05-10T13:26:36;8.90;;;8.50;;
30080;SDS011;16902;50.816;12.828;2023-05-10T13:31:38;9.35;;;8.95;;
30080;SDS011;16902;50.816;12.828;2023-05-10T13:36:40;9.20;;;8.80;;
30080;SDS011;16902;50.816;12.828;2023-05-10T13:41:42;9.70;;;9.30;;
30080;SDS011;16902;50.816;12.828;2023-05-10T13:46:44;8.52;;;8.23;;
30080;SDS011;16902;50.816;12.828;2023-05-10T13:51:46;9.23;;;8.82;;
30080;SDS011;16902;50.816;12.828;2023-05-10T13:56:48;9.32;;;9.02;;
30080;SDS011;16902;50.816;12.828;2023-05-10T14:01:50;10.57;;;10.10;;
30080;SDS011;16902;50.816;12.828;2023-05-10T14:06:52;9.52;;;9.23;;
30080;SDS011;16902;50.816;12.828;2023-05-10T14:11:54;10.30;;;9.90;;
30080;SDS011;16902;50.816;12.828;2023-05-10T14:16:57;10.50;;;10.10;;
30080;SDS011;16902;50.816;12.828;2023-05-10T14:21:59;10.43;;;10.02;;
30080;SDS011;16902;50.816;12.828;2023-05-10T14:27:01;11.32;;;10.82;;
30080;SDS011;16902;50.816;12.828;2023-05-10T14:32:03;10.98;;;10.52;;
30080;SDS011;16902;50.816;12.828;2023-05-10T14:37:05;11.30;;;10.82;;
30080;SDS011;16902;50.816;12.828;2023-05-10T14:42:07;10.60;;;10.20;;
30080;SDS011;16902;50.816;12.828;2023-05-10T14:47:10;10.52;;;10.02;;
30080;SDS011;16902;50.816;12.828;2023-05-10T14:52:12;10.48;;;10.07;;
30080;SDS011;16902;50.816;12.828;2023-05-10T14:57:15;10.57;;;10.18;;
30080;SDS011;16902;50.816;12.828;2023-05-10T15:02:17;10.40;;;10.00;;
30080;SDS011;16902;50.816;12.828;2023-05-10T15:07:20;10.38;;;9.98;;
30080;SDS011;16902;50.816;12.828;2023-05-10T15:12:21;10.40;;;10.00;;
30080;SDS011;16902;50.816;12.828;2023-05-10T15:17:23;10.68;;;10.07;;
30080;SDS011;16902;50.816;12.828;2023-05-10T15:22:25;8.77;;;8.48;;
30080;SDS011;16902;50.816;12.828;2023-05-10T15:27:29;8.07;;;7.78;;
30080;SDS011;16902;50.816;12.828;2023-05-10T15:32:31;6.63;;;6.43;;
30080;SDS011;16902;50.816;12.828;2023-05-10T15:37:33;6.40;;;6.20;;
30080;SDS011;16902;50.816;12.828;2023-05-10T15:42:36;5.93;;;5.63;;
30080;SDS011;16902;50.816;12.828;2023-05-10T15:47:38;5.65;;;5.45;;
30080;SDS011;16902;50.816;12.828;2023-05-10T15:52:43;5.30;;;5.18;;
30080;SDS011;16902;50.816;12.828;2023-05-10T15:57:45;4.90;;;4.70;;
30080;SDS011;16902;50.816;12.828;2023-05-10T16:02:47;5.47;;;5.28;;
30080;SDS011;16902;50.816;12.828;2023-05-10T16:07:49;4.57;;;4.43;;
30080;SDS011;16902;50.816;12.828;2023-05-10T16:12:51;4.72;;;4.53;;
30080;SDS011;16902;50.816;12.828;2023-05-10T16:17:54;4.22;;;4.10;;
30080;SDS011;16902;50.816;12.828;2023-05-10T16:22:58;4.00;;;3.90;;
30080;SDS011;16902;50.816;12.828;2023-05-10T16:28:04;4.10;;;3.90;;
30080;SDS011;16902;50.816;12.828;2023-05-10T16:33:06;4.70;;;4.60;;
30080;SDS011;16902;50.816;12.828;2023-05-10T16:38:08;5.15;;;4.95;;
30080;SDS011;16902;50.816;12.828;2023-05-10T16:43:09;5.03;;;4.90;;
30080;SDS011;16902;50.816;12.828;2023-05-10T16:48:11;5.18;;;4.97;;
30080;SDS011;16902;50.816;12.828;2023-05-10T16:53:13;4.95;;;4.75;;
30080;SDS011;16902;50.816;12.828;2023-05-10T16:58:15;4.45;;;4.35;;
30080;SDS011;16902;50.816;12.828;2023-05-10T17:03:17;4.45;;;4.35;;
30080;SDS011;16902;50.816;12.828;2023-05-10T17:08:20;4.30;;;4.10;;
30080;SDS011;16902;50.816;12.828;2023-05-10T17:13:22;3.67;;;3.50;;
30080;SDS011;16902;50.816;12.828;2023-05-10T17:18:24;3.45;;;3.35;;
30080;SDS011;16902;50.816;12.828;2023-05-10T17:23:27;3.58;;;3.47;;
30080;SDS011;16902;50.816;12.828;2023-05-10T17:28:29;3.67;;;3.58;;
30080;SDS011;16902;50.816;12.828;2023-05-10T17:33:31;3.78;;;3.67;;
30080;SDS011;16902;50.816;12.828;2023-05-10T17:38:33;3.50;;;3.40;;
30080;SDS011;16902;50.816;12.828;2023-05-10T17:43:36;3.30;;;3.20;;
30080;SDS011;16902;50.816;12.828;2023-05-10T17:48:38;3.90;;;3.78;;
30080;SDS011;16902;50.816;12.828;2023-05-10T17:53:40;3.72;;;3.50;;
30080;SDS011;16902;50.816;12.828;2023-05-10T17:58:42;3.53;;;3.33;;
30080;SDS011;16902;50.816;12.828;2023-05-10T18:03:44;3.17;;;3.08;;
30080;SDS011;16902;50.816;12.828;2023-05-10T18:08:46;3.13;;;3.03;;
30080;SDS011;16902;50.816;12.828;2023-05-10T18:13:48;2.80;;;2.70;;
30080;SDS011;16902;50.816;12.828;2023-05-10T18:18:50;2.90;;;2.80;;
30080;SDS011;16902;50.816;12.828;2023-05-10T18:23:52;2.88;;;2.78;;
30080;SDS011;16902;50.816;12.828;2023-05-10T18:28:54;2.92;;;2.83;;
30080;SDS011;16902;50.816;12.828;2023-05-10T18:33:58;2.60;;;2.50;;
30080;SDS011;16902;50.816;12.828;2023-05-10T18:39:00;3.03;;;2.92;;
30080;SDS011;16902;50.816;12.828;2023-05-10T18:44:02;2.88;;;2.67;;
30080;SDS011;16902;50.816;12.828;2023-05-10T18:49:04;2.67;;;2.58;;
30080;SDS011;16902;50.816;12.828;2023-05-10T18:54:06;2.25;;;2.22;;
30080;SDS011;16902;50.816;12.828;2023-05-10T18:59:09;2.28;;;2.17;;
30080;SDS011;16902;50.816;12.828;2023-05-10T19:04:11;2.25;;;2.15;;
30080;SDS011;16902;50.816;12.828;2023-05-10T19:09:13;2.17;;;2.08;;
30080;SDS011;16902;50.816;12.828;2023-05-10T19:14:15;2.83;;;2.63;;
30080;SDS011;16902;50.816;12.828;2023-05-10T19:19:17;2.20;;;2.10;;
30080;SDS011;16902;50.816;12.828;2023-05-10T19:24:19;2.50;;;2.40;;
30080;SDS011;16902;50.816;12.828;2023-05-10T19:29:24;2.08;;;2.00;;
30080;SDS011;16902;50.816;12.828;2023-05-10T19:34:26;2.10;;;2.00;;
30080;SDS011;16902;50.816;12.828;2023-05-10T19:39:29;2.25;;;2.15;;
30080;SDS011;16902;50.816;12.828;2023-05-10T19:44:32;1.92;;;1.85;;
30080;SDS011;16902;50.816;12.828;2023-05-10T19:49:34;1.90;;;1.83;;
30080;SDS011;16902;50.816;12.828;2023-05-10T19:54:36;1.77;;;1.70;;
30080;SDS011;16902;50.816;12.828;2023-05-10T19:59:38;1.65;;;1.65;;
30080;SDS011;16902;50.816;12.828;2023-05-10T20:04:40;2.25;;;2.15;;
30080;SDS011;16902;50.816;12.828;2023-05-10T20:09:42;2.10;;;2.00;;
30080;SDS011;16902;50.816;12.828;2023-05-10T20:14:44;1.85;;;1.75;;
30080;SDS011;16902;50.816;12.828;2023-05-10T20:19:46;2.03;;;1.92;;
30080;SDS011;16902;50.816;12.828;2023-05-10T20:24:48;2.22;;;2.13;;
30080;SDS011;16902;50.816;12.828;2023-05-10T20:29:50;2.20;;;2.03;;
30080;SDS011;16902;50.816;12.828;2023-05-10T20:34:52;1.95;;;1.88;;
30080;SDS011;16902;50.816;12.828;2023-05-10T20:39:54;1.90;;;1.80;;
30080;SDS011;16902;50.816;12.828;2023-05-10T20:44:57;1.98;;;1.95;;
30080;SDS011;16902;50.816;12.828;2023-05-10T20:49:59;2.10;;;2.00;;
30080;SDS011;16902;50.816;12.828;2023-05-10T20:55:00;1.92;;;1.83;;
30080;SDS011;16902;50.816;12.828;2023-05-10T21:00:02;1.83;;;1.83;;
30080;SDS011;16902;50.816;12.828;2023-05-10T21:05:06;1.83;;;1.80;;
30080;SDS011;16902;50.816;12.828;2023-05-10T21:10:09;2.10;;;2.00;;
30080;SDS011;16902;50.816;12.828;2023-05-10T21:15:11;1.90;;;1.80;;
30080;SDS011;16902;50.816;12.828;2023-05-10T21:20:14;2.20;;;2.10;;
30080;SDS011;16902;50.816;12.828;2023-05-10T21:25:16;1.88;;;1.80;;
30080;SDS011;16902;50.816;12.828;2023-05-10T21:30:18;1.73;;;1.70;;
30080;SDS011;16902;50.816;12.828;2023-05-10T21:35:20;1.83;;;1.77;;
30080;SDS011;16902;50.816;12.828;2023-05-10T21:40:22;1.60;;;1.60;;
30080;SDS011;16902;50.816;12.828;2023-05-10T21:45:24;1.80;;;1.80;;
30080;SDS011;16902;50.816;12.828;2023-05-10T21:50:26;1.70;;;1.70;;
30080;SDS011;16902;50.816;12.828;2023-05-10T21:55:28;1.98;;;1.88;;
30080;SDS011;16902;50.816;12.828;2023-05-10T22:00:30;2.33;;;2.22;;
30080;SDS011;16902;50.816;12.828;2023-05-10T22:05:34;3.70;;;2.60;;
30080;SDS011;16902;50.816;12.828;2023-05-10T22:10:36;2.50;;;2.30;;
30080;SDS011;16902;50.816;12.828;2023-05-10T22:15:38;2.85;;;2.65;;
30080;SDS011;16902;50.816;12.828;2023-05-10T22:20:40;2.33;;;2.22;;
30080;SDS011;16902;50.816;12.828;2023-05-10T22:25:45;2.40;;;2.30;;
30080;SDS011;16902;50.816;12.828;2023-05-10T22:30:47;2.72;;;2.53;;
30080;SDS011;16902;50.816;12.828;2023-05-10T22:35:49;2.72;;;2.55;;
30080;SDS011;16902;50.816;12.828;2023-05-10T22:40:50;2.55;;;2.42;;
30080;SDS011;16902;50.816;12.828;2023-05-10T22:45:52;2.70;;;2.50;;
30080;SDS011;16902;50.816;12.828;2023-05-10T22:50:54;2.53;;;2.42;;
30080;SDS011;16902;50.816;12.828;2023-05-10T22:55:56;2.75;;;2.55;;
30080;SDS011;16902;50.816;12.828;2023-05-10T23:00:58;2.38;;;2.28;;
30080;SDS011;16902;50.816;12.828;2023-05-10T23:06:00;2.55;;;2.45;;
30080;SDS011;16902;50.816;12.828;2023-05-10T23:11:02;2.05;;;1.95;;
30080;SDS011;16902;50.816;12.828;2023-05-10T23:16:04;2.88;;;2.60;;
30080;SDS011;16902;50.816;12.828;2023-05-10T23:21:07;3.08;;;2.88;;
30080;SDS011;16902;50.816;12.828;2023-05-10T23:26:09;2.88;;;2.67;;
30080;SDS011;16902;50.816;12.828;2023-05-10T23:31:10;3.08;;;2.88;;
30080;SDS011;16902;50.816;12.828;2023-05-10T23:36:12;3.17;;;2.83;;
30080;SDS011;16902;50.816;12.828;2023-05-10T23:41:14;2.97;;;2.78;;
30080;SDS011;16902;50.816;12.828;2023-05-10T23:46:16;3.08;;;2.80;;
30080;SDS011;16902;50.816;12.828;2023-05-10T23:51:18;4.07;;;3.72;;
30080;SDS011;16902;50.816;12.828;2023-05-10T23:56:20;4.30;;;3.88;;
